Time;durP1;ratioP1;P1;durP2;ratioP2;P2;SDS_P1;SDS_P2;PMS_P1;PMS_P2;Temp;Humidity;BMP_temperature;BMP_pressure;BME280_temperature;BME280_humidity;BME280_pressure;Samples;Min_cycle;Max_cycle;Signal;HPM_P1;HPM_P2
2021/03/26 00:00:44;;;;;;;130.70;74.83;;;-0.60;26.90;;;;;;4875237;28;20239;-82
2021/03/26 00:03:08;;;;;;;125.50;72.23;;;-0.50;31.50;;;;;;4875843;28;20271;-82
2021/03/26 00:05:31;;;;;;;124.40;70.87;;;-0.40;36.00;;;;;;4865207;28;20220;-85
2021/03/26 00:07:54;;;;;;;119.77;69.33;;;-0.50;39.40;;;;;;4871986;28;20228;-83
2021/03/26 00:10:17;;;;;;;123.03;75.87;;;-0.60;42.50;;;;;;4875614;28;21059;-81
2021/03/26 00:12:40;;;;;;;134.90;79.20;;;-0.60;44.20;;;;;;4876159;28;20653;-82
2021/03/26 00:15:04;;;;;;;140.00;85.47;;;-0.50;49.60;;;;;;4856427;28;20674;-84
2021/03/26 00:17:26;;;;;;;146.23;90.77;;;-0.50;57.10;;;;;;4858414;28;20237;-83
2021/03/26 00:19:49;;;;;;;136.77;84.07;;;-0.50;64.30;;;;;;4858278;28;20193;-78
2021/03/26 00:22:12;;;;;;;114.60;68.07;;;-0.50;71.40;;;;;;4875818;28;20236;-83
2021/03/26 00:24:34;;;;;;;115.00;69.13;;;-0.40;76.20;;;;;;4842122;28;20626;-83
2021/03/26 00:26:57;;;;;;;118.37;70.73;;;-0.50;76.60;;;;;;4858946;28;20627;-81
2021/03/26 00:29:19;;;;;;;123.07;74.03;;;-0.60;75.00;;;;;;4875582;28;20260;-81
2021/03/26 00:31:42;;;;;;;123.13;74.80;;;-0.50;73.00;;;;;;4858785;28;20182;-83
2021/03/26 00:34:05;;;;;;;121.40;71.27;;;-0.60;71.70;;;;;;4875654;28;20587;-84
2021/03/26 00:36:27;;;;;;;130.27;77.53;;;-0.60;71.30;;;;;;4874075;28;20235;-83
2021/03/26 00:38:50;;;;;;;122.33;73.60;;;-0.60;71.30;;;;;;4875915;28;20212;-82
2021/03/26 00:41:13;;;;;;;134.50;81.40;;;-0.60;71.70;;;;;;4874438;28;20251;-83
2021/03/26 00:43:36;;;;;;;134.67;79.70;;;-0.60;72.00;;;;;;4874180;28;20201;-81
2021/03/26 00:45:58;;;;;;;126.90;77.97;;;-0.60;72.80;;;;;;4859104;28;20194;-82
2021/03/26 00:48:22;;;;;;;116.00;68.53;;;-0.50;74.00;;;;;;4875830;28;20213;-82
2021/03/26 00:50:47;;;;;;;119.67;67.50;;;-0.70;74.60;;;;;;4870626;28;20205;-82
2021/03/26 00:53:12;;;;;;;119.13;69.40;;;-0.70;72.10;;;;;;4872652;28;20272;-82
2021/03/26 00:55:35;;;;;;;118.63;71.27;;;-0.70;68.80;;;;;;4858156;28;20619;-80
2021/03/26 00:57:57;;;;;;;122.47;73.40;;;-0.80;66.40;;;;;;4874879;28;20275;-78
2021/03/26 01:00:28;;;;;;;121.27;73.73;;;-0.80;66.30;;;;;;4873888;28;20654;-78
2021/03/26 01:02:51;;;;;;;135.10;76.37;;;-0.80;67.70;;;;;;4855268;28;20677;-81
2021/03/26 01:05:16;;;;;;;122.03;73.70;;;-0.80;68.30;;;;;;4874486;28;20624;-82
2021/03/26 01:07:39;;;;;;;120.43;74.70;;;-0.80;67.90;;;;;;4868394;28;20642;-81
2021/03/26 01:10:03;;;;;;;119.47;74.57;;;-0.80;67.60;;;;;;4857631;28;20671;-83
2021/03/26 01:12:27;;;;;;;126.20;76.70;;;-0.90;67.20;;;;;;4857172;28;20669;-84
2021/03/26 01:14:50;;;;;;;127.50;75.93;;;-0.90;67.00;;;;;;4852682;28;20635;-81
2021/03/26 01:17:13;;;;;;;125.43;76.77;;;-0.90;68.10;;;;;;4874489;28;20684;-77
2021/03/26 01:19:41;;;;;;;121.87;73.57;;;-0.90;68.30;;;;;;4872740;28;20205;-79
2021/03/26 01:22:04;;;;;;;124.17;77.77;;;-0.90;65.70;;;;;;4855383;28;20648;-82
2021/03/26 01:24:27;;;;;;;123.33;74.17;;;-1.00;63.10;;;;;;4866853;28;21021;-84
2021/03/26 01:26:50;;;;;;;125.57;75.47;;;-1.00;60.80;;;;;;4857391;28;20632;-81
2021/03/26 01:29:26;;;;;;;123.57;77.00;;;-1.00;59.00;;;;;;4874040;28;20253;-83
2021/03/26 01:31:54;;;;;;;125.80;76.47;;;-1.00;60.00;;;;;;4861806;28;20232;-80
2021/03/26 01:34:17;;;;;;;117.93;72.57;;;-1.00;59.80;;;;;;4876952;28;20197;-83
2021/03/26 01:36:45;;;;;;;120.20;74.80;;;-1.10;60.50;;;;;;4862247;28;21033;-82
2021/03/26 01:39:09;;;;;;;129.03;76.60;;;-1.10;60.50;;;;;;4876414;28;20653;-82
2021/03/26 01:41:39;;;;;;;120.60;73.40;;;-1.10;59.90;;;;;;4873901;28;20197;-81
2021/03/26 01:44:09;;;;;;;138.83;78.03;;;-1.10;59.50;;;;;;4876124;28;20634;-76
2021/03/26 01:46:32;;;;;;;133.60;77.37;;;-1.10;60.00;;;;;;4875336;28;20607;-82
2021/03/26 01:48:57;;;;;;;133.50;80.20;;;-1.10;61.30;;;;;;4878020;28;20738;-83
2021/03/26 01:51:23;;;;;;;131.20;76.03;;;-1.10;64.00;;;;;;4877229;28;20647;-82
2021/03/26 01:53:46;;;;;;;121.10;74.17;;;-1.10;68.30;;;;;;4860647;28;21056;-82
2021/03/26 01:56:09;;;;;;;116.03;71.47;;;-1.10;73.10;;;;;;4877982;28;20622;-79
2021/03/26 01:58:41;;;;;;;115.87;72.13;;;-1.10;75.90;;;;;;4860248;28;20634;-83
2021/03/26 02:01:07;;;;;;;117.23;67.67;;;-1.10;76.70;;;;;;4874003;28;20225;-80
2021/03/26 02:03:33;;;;;;;132.93;77.30;;;-1.10;78.20;;;;;;4855167;28;20696;-83
2021/03/26 02:06:01;;;;;;;129.37;77.57;;;-1.10;79.20;;;;;;4861515;28;20685;-80
2021/03/26 02:08:31;;;;;;;130.03;78.67;;;-1.10;79.00;;;;;;4853328;28;20709;-81
2021/03/26 02:10:59;;;;;;;134.83;81.23;;;-1.10;79.40;;;;;;4878317;28;20646;-84
2021/03/26 02:13:28;;;;;;;146.63;86.90;;;-1.10;80.80;;;;;;4878077;28;20692;-81
2021/03/26 02:15:58;;;;;;;141.53;84.43;;;-1.10;83.90;;;;;;4845164;28;20198;-82
2021/03/26 02:18:24;;;;;;;138.73;83.17;;;-1.00;88.10;;;;;;4859560;28;20264;-80
2021/03/26 02:20:51;;;;;;;149.10;88.97;;;-1.00;90.30;;;;;;4839132;28;20203;-82
2021/03/26 02:23:17;;;;;;;132.47;81.03;;;-1.00;91.80;;;;;;4860935;28;20186;-81
2021/03/26 02:25:57;;;;;;;126.57;77.07;;;-0.90;93.40;;;;;;4860599;28;20700;-79
2021/03/26 02:28:20;;;;;;;126.07;73.23;;;-1.00;94.60;;;;;;4876066;28;20699;-82
2021/03/26 02:30:47;;;;;;;121.47;74.53;;;-0.90;95.00;;;;;;4851919;28;20623;-83
2021/03/26 02:33:12;;;;;;;125.37;77.40;;;-0.90;94.60;;;;;;4859920;28;20631;-82
2021/03/26 02:35:37;;;;;;;124.63;75.57;;;-0.90;94.30;;;;;;4858598;28;20627;-80
2021/03/26 02:38:35;;;;;;;120.10;73.53;;;-0.90;94.10;;;;;;4854920;28;20683;-82
2021/03/26 02:41:22;;;;;;;118.30;74.40;;;-1.00;94.00;;;;;;4874046;28;20206;-80
2021/03/26 02:43:55;;;;;;;123.77;75.83;;;-1.00;93.40;;;;;;4858097;28;20634;-81
2021/03/26 02:46:23;;;;;;;119.97;72.47;;;-1.00;93.00;;;;;;4856926;28;20698;-82
2021/03/26 02:48:55;;;;;;;130.97;77.43;;;-1.00;92.90;;;;;;4860060;28;21247;-81
2021/03/26 02:51:22;;;;;;;123.33;74.70;;;-1.00;92.80;;;;;;4875038;28;20688;-81
2021/03/26 02:54:02;;;;;;;122.73;72.77;;;-1.00;93.10;;;;;;4860015;28;20725;-82
2021/03/26 02:56:31;;;;;;;127.47;74.47;;;-1.00;92.60;;;;;;4852403;28;20185;-78
2021/03/26 02:59:01;;;;;;;125.10;74.23;;;-1.00;91.90;;;;;;4876663;28;20614;-83
2021/03/26 03:01:30;;;;;;;115.30;71.53;;;-1.00;91.00;;;;;;4855491;28;20639;-80
2021/03/26 03:03:57;;;;;;;119.70;74.40;;;-1.00;89.80;;;;;;4876173;28;20771;-83
2021/03/26 03:06:25;;;;;;;115.00;68.73;;;-1.10;87.50;;;;;;4860687;28;20663;-82
2021/03/26 03:09:25;;;;;;;125.97;73.90;;;-1.10;85.90;;;;;;4850953;28;20681;-83
2021/03/26 03:11:51;;;;;;;119.13;73.50;;;-1.10;82.70;;;;;;4875375;28;20642;-78
2021/03/26 03:14:18;;;;;;;130.10;74.63;;;-1.10;80.20;;;;;;4871035;28;20198;-80
2021/03/26 03:16:48;;;;;;;119.20;72.23;;;-1.20;78.70;;;;;;4859544;28;20190;-81
2021/03/26 03:19:16;;;;;;;119.93;73.10;;;-1.20;78.80;;;;;;4858662;28;20639;-79
2021/03/26 03:21:44;;;;;;;116.27;70.83;;;-1.20;78.60;;;;;;4875897;28;20665;-81
2021/03/26 03:24:12;;;;;;;112.63;71.50;;;-1.20;76.60;;;;;;4841917;28;20761;-82
2021/03/26 03:26:51;;;;;;;117.03;72.83;;;-1.20;74.30;;;;;;4823772;28;20689;-82
2021/03/26 03:29:21;;;;;;;122.57;72.73;;;-1.20;72.70;;;;;;4873471;28;20708;-79
2021/03/26 03:32:11;;;;;;;122.70;71.80;;;-1.20;73.10;;;;;;4877513;28;20674;-81
2021/03/26 03:34:39;;;;;;;118.87;72.03;;;-1.20;73.40;;;;;;4859781;28;20189;-80
2021/03/26 03:37:14;;;;;;;129.97;77.60;;;-1.20;73.10;;;;;;4859297;28;20616;-81
2021/03/26 03:39:47;;;;;;;114.97;72.40;;;-1.20;74.00;;;;;;4855181;28;20689;-80
2021/03/26 03:42:18;;;;;;;122.13;73.00;;;-1.20;75.60;;;;;;4876302;28;20634;-80
2021/03/26 03:44:47;;;;;;;118.63;72.50;;;-1.20;77.40;;;;;;4874914;28;20618;-80
2021/03/26 03:47:16;;;;;;;115.67;71.07;;;-1.20;79.60;;;;;;4875383;28;20197;-77
2021/03/26 03:49:51;;;;;;;118.60;72.83;;;-1.10;82.00;;;;;;4857894;28;20674;-79
2021/03/26 03:52:19;;;;;;;111.70;71.90;;;-1.10;83.80;;;;;;4874748;28;20716;-80
2021/03/26 03:54:47;;;;;;;119.57;72.17;;;-1.10;86.30;;;;;;4856421;28;20673;-79
2021/03/26 03:57:14;;;;;;;118.37;72.63;;;-1.10;89.00;;;;;;4858313;28;20628;-82
2021/03/26 03:59:40;;;;;;;137.70;82.27;;;-1.10;91.00;;;;;;4874932;28;20286;-81
2021/03/26 04:02:18;;;;;;;124.67;74.00;;;-1.10;92.30;;;;;;4855557;28;20693;-79
2021/03/26 04:04:45;;;;;;;106.63;70.00;;;-1.10;92.30;;;;;;4874924;28;21031;-81
2021/03/26 04:07:22;;;;;;;110.57;68.77;;;-1.10;91.40;;;;;;4858566;28;20201;-80
2021/03/26 04:09:50;;;;;;;109.60;68.43;;;-1.20;89.90;;;;;;4857026;28;20671;-78
2021/03/26 04:12:16;;;;;;;108.10;68.00;;;-1.20;86.30;;;;;;4858444;28;20647;-78
2021/03/26 04:15:09;;;;;;;113.80;67.23;;;-1.20;83.70;;;;;;4875841;28;20180;-80
2021/03/26 04:18:04;;;;;;;115.50;71.03;;;-1.20;81.80;;;;;;4871611;28;20609;-80
2021/03/26 04:21:24;;;;;;;120.00;73.73;;;-1.20;81.10;;;;;;4874415;28;20619;-80
2021/03/26 04:24:31;;;;;;;117.77;66.73;;;-1.30;82.40;;;;;;4874791;28;21194;-79
2021/03/26 04:28:01;;;;;;;119.27;70.30;;;-1.30;83.00;;;;;;4875361;28;20629;-80
2021/03/26 04:30:58;;;;;;;124.40;75.93;;;-1.40;80.60;;;;;;4871542;28;20619;-78
2021/03/26 04:33:50;;;;;;;130.33;78.57;;;-1.40;79.90;;;;;;4870774;28;20610;-78
2021/03/26 04:36:40;;;;;;;130.10;76.23;;;-1.40;81.70;;;;;;4854985;28;20613;-80
2021/03/26 04:39:50;;;;;;;115.43;69.77;;;-1.30;83.50;;;;;;4873439;28;20595;-79
2021/03/26 04:42:44;;;;;;;112.40;67.27;;;-1.30;86.70;;;;;;4875332;28;20648;-80
2021/03/26 04:45:32;;;;;;;107.97;65.87;;;-1.30;90.40;;;;;;4876210;28;20540;-81
2021/03/26 04:48:48;;;;;;;110.60;67.60;;;-1.20;93.30;;;;;;4874954;28;20691;-79
2021/03/26 04:51:32;;;;;;;110.10;65.47;;;-1.00;98.30;;;;;;4875596;28;20595;-80
2021/03/26 04:54:19;;;;;;;107.17;64.30;;;-0.90;99.90;;;;;;4878055;28;20709;-82
2021/03/26 04:56:54;;;;;;;99.83;62.90;;;-0.70;99.90;;;;;;4857373;28;20220;-80
2021/03/26 04:59:39;;;;;;;100.23;64.20;;;-0.60;99.90;;;;;;4873639;28;20656;-80
2021/03/26 05:02:12;;;;;;;100.40;61.50;;;-0.50;99.90;;;;;;4855414;28;20238;-83
2021/03/26 05:04:41;;;;;;;105.20;65.40;;;-0.50;99.90;;;;;;4871948;28;20638;-82
2021/03/26 05:07:10;;;;;;;102.27;63.17;;;-0.40;99.90;;;;;;4860338;28;20591;-83
2021/03/26 05:09:36;;;;;;;91.00;59.77;;;-0.30;99.90;;;;;;4852474;28;20705;-81
2021/03/26 05:12:02;;;;;;;89.20;57.77;;;-0.30;99.90;;;;;;4868796;28;20696;-82
2021/03/26 05:14:29;;;;;;;92.23;58.17;;;-0.20;99.90;;;;;;4856922;28;20686;-83
2021/03/26 05:16:56;;;;;;;95.80;59.73;;;-0.10;99.90;;;;;;4841794;28;20225;-82
2021/03/26 05:19:43;;;;;;;106.50;65.67;;;-0.10;99.90;;;;;;4859903;28;20870;-81
2021/03/26 05:22:19;;;;;;;109.10;67.03;;;0.00;99.90;;;;;;4873607;28;20802;-82
2021/03/26 05:25:05;;;;;;;94.63;59.73;;;0.00;99.90;;;;;;4870364;28;20231;-83
2021/03/26 05:28:06;;;;;;;90.80;57.80;;;0.10;99.90;;;;;;4794616;28;20596;-81
2021/03/26 05:30:34;;;;;;;90.77;58.90;;;0.10;99.90;;;;;;4851711;28;20213;-82
2021/03/26 05:33:01;;;;;;;87.87;57.27;;;0.20;99.90;;;;;;4873653;28;20197;-81
2021/03/26 05:35:47;;;;;;;91.23;60.93;;;0.30;99.90;;;;;;4875005;28;20698;-82
2021/03/26 05:38:38;;;;;;;87.17;57.20;;;0.30;99.90;;;;;;4838519;28;20530;-81
2021/03/26 05:41:51;;;;;;;88.97;57.00;;;0.40;99.90;;;;;;4873473;28;20274;-83
2021/03/26 05:44:59;;;;;;;101.77;63.20;;;0.50;99.80;;;;;;4868033;28;20701;-80
2021/03/26 05:48:05;;;;;;;116.50;71.37;;;0.60;98.90;;;;;;4875592;28;20189;-83
2021/03/26 05:50:42;;;;;;;107.57;68.10;;;0.60;98.20;;;;;;4873545;28;20260;-82
2021/03/26 05:53:24;;;;;;;110.20;69.60;;;0.70;97.90;;;;;;4855656;28;20706;-81
2021/03/26 05:56:31;;;;;;;107.70;66.27;;;0.70;97.30;;;;;;4862093;28;20242;-83
2021/03/26 05:59:09;;;;;;;89.47;58.30;;;0.80;96.80;;;;;;4874409;28;20312;-83
2021/03/26 06:02:01;;;;;;;83.40;57.60;;;0.90;96.00;;;;;;4856659;28;20263;-82
2021/03/26 06:05:09;;;;;;;103.33;65.33;;;1.00;95.10;;;;;;4854611;28;20244;-82
2021/03/26 06:08:13;;;;;;;95.77;63.80;;;1.10;94.30;;;;;;4856009;28;20607;-83
2021/03/26 06:11:19;;;;;;;98.40;65.33;;;1.30;93.70;;;;;;4852385;28;20217;-82
2021/03/26 06:14:19;;;;;;;110.37;72.87;;;1.40;93.00;;;;;;4860722;28;20193;-84
2021/03/26 06:17:18;;;;;;;104.77;72.73;;;1.60;90.90;;;;;;4877026;28;20689;-84
2021/03/26 06:20:45;;;;;;;106.17;71.30;;;1.80;87.50;;;;;;4860031;28;20228;-80
2021/03/26 06:24:00;;;;;;;85.17;58.37;;;2.00;84.30;;;;;;4842962;28;20217;-85
2021/03/26 06:26:53;;;;;;;82.37;58.73;;;2.30;80.90;;;;;;4860445;28;20174;-82
2021/03/26 06:29:26;;;;;;;83.30;55.67;;;2.50;77.30;;;;;;4836847;28;20300;-86
2021/03/26 06:32:34;;;;;;;72.33;50.90;;;2.80;70.90;;;;;;4878812;28;20201;-81
2021/03/26 06:35:58;;;;;;;70.50;50.80;;;3.10;54.70;;;;;;4863277;28;20205;-82
2021/03/26 06:38:44;;;;;;;74.43;52.87;;;3.40;23.80;;;;;;4816179;28;20539;-84
2021/03/26 06:41:17;;;;;;;66.30;47.00;;;3.80;2.20;;;;;;4861385;28;20717;-82
2021/03/26 06:44:14;;;;;;;68.00;48.17;;;4.00;1.00;;;;;;4861401;28;20755;-84
2021/03/26 06:46:47;;;;;;;61.30;44.33;;;4.30;1.00;;;;;;4861774;28;20201;-87
2021/03/26 06:49:22;;;;;;;57.33;44.10;;;4.40;1.00;;;;;;4877697;28;20225;-80
2021/03/26 06:52:16;;;;;;;59.37;43.67;;;4.50;99.90;;;;;;4879834;28;20174;-89
2021/03/26 06:55:20;;;;;;;57.20;43.37;;;4.60;99.90;;;;;;4850824;28;20211;-85
2021/03/26 06:58:00;;;;;;;55.90;39.93;;;4.80;14.60;;;;;;4880068;28;20181;-84
2021/03/26 07:00:44;;;;;;;50.43;37.80;;;5.00;1.00;;;;;;4860415;28;20193;-78
2021/03/26 07:03:43;;;;;;;48.07;36.13;;;5.20;1.00;;;;;;4850396;28;20561;-85
2021/03/26 07:06:44;;;;;;;43.83;32.37;;;5.40;21.00;;;;;;4861252;28;20645;-87
2021/03/26 07:09:55;;;;;;;39.90;29.73;;;5.60;1.00;;;;;;4857825;28;20218;-87
2021/03/26 07:12:40;;;;;;;45.70;33.80;;;5.80;99.90;;;;;;4788689;28;20207;-76
2021/03/26 07:15:07;;;;;;;34.07;25.40;;;6.10;92.90;;;;;;4819811;28;20183;-79
2021/03/26 07:18:09;;;;;;;34.03;24.90;;;6.40;1.00;;;;;;4827114;28;20240;-87
2021/03/26 07:21:04;;;;;;;30.10;25.67;;;6.60;1.00;;;;;;4878398;28;20223;-83
2021/03/26 07:24:18;;;;;;;29.40;24.43;;;6.80;1.00;;;;;;4878243;28;20243;-88
2021/03/26 07:26:49;;;;;;;30.17;25.23;;;7.10;1.00;;;;;;4857870;28;20189;-81
2021/03/26 07:29:42;;;;;;;23.50;20.83;;;7.30;99.90;;;;;;4862671;28;20213;-79
2021/03/26 07:32:30;;;;;;;24.27;21.53;;;7.50;1.00;;;;;;4870285;28;20189;-85
2021/03/26 07:35:19;;;;;;;24.57;21.27;;;7.60;99.90;;;;;;4871858;28;20206;-77
2021/03/26 07:37:55;;;;;;;23.07;20.60;;;7.80;99.90;;;;;;4876788;28;20316;-84
2021/03/26 07:40:39;;;;;;;24.33;20.27;;;7.90;99.90;;;;;;4860222;28;20706;-85
2021/03/26 07:43:19;;;;;;;24.33;20.23;;;8.10;99.90;;;;;;4859557;28;20190;-81
2021/03/26 07:45:59;;;;;;;23.40;19.67;;;8.30;99.90;;;;;;4873948;28;20563;-84
2021/03/26 07:48:40;;;;;;;21.23;19.03;;;8.50;1.00;;;;;;4876596;28;20177;-82
2021/03/26 07:51:11;;;;;;;20.13;18.00;;;8.70;1.00;;;;;;4873857;28;20682;-85
2021/03/26 07:53:59;;;;;;;20.20;18.03;;;9.00;1.00;;;;;;4863123;28;20194;-85
2021/03/26 07:56:59;;;;;;;18.20;16.37;;;9.30;1.00;;;;;;4823283;28;20199;-76
2021/03/26 08:00:06;;;;;;;17.63;15.93;;;9.60;1.00;;;;;;4869113;28;20194;-75
2021/03/26 08:02:48;;;;;;;19.03;17.10;;;9.90;1.00;;;;;;4872319;28;20225;-81
2021/03/26 08:05:20;;;;;;;16.50;14.73;;;10.10;1.00;;;;;;4876590;28;20209;-83
2021/03/26 08:08:07;;;;;;;15.83;14.17;;;10.40;1.00;;;;;;4877758;28;20196;-76
2021/03/26 08:10:37;;;;;;;15.07;13.53;;;10.80;1.00;;;;;;4876116;28;20264;-87
2021/03/26 08:13:35;;;;;;;13.53;12.20;;;11.20;1.00;;;;;;4876317;28;20726;-78
2021/03/26 08:16:20;;;;;;;13.23;12.00;;;11.50;1.00;;;;;;4867356;28;20640;-81
2021/03/26 08:18:55;;;;;;;12.23;11.10;;;11.80;1.00;;;;;;4842647;28;20725;-74
2021/03/26 08:21:24;;;;;;;10.97;10.00;;;12.00;1.00;;;;;;4873414;28;20217;-81
2021/03/26 08:24:03;;;;;;;11.40;10.33;;;12.20;1.00;;;;;;4857404;28;20194;-78
2021/03/26 08:26:38;;;;;;;11.70;10.63;;;12.40;1.00;;;;;;4857898;28;20639;-78
2021/03/26 08:29:17;;;;;;;10.90;9.97;;;12.50;1.00;;;;;;4842530;28;20659;-85
2021/03/26 08:32:06;;;;;;;10.23;9.30;;;12.60;1.00;;;;;;4863706;28;20255;-79
2021/03/26 08:34:41;;;;;;;9.87;8.93;;;12.90;1.00;;;;;;4870907;28;20195;-80
2021/03/26 08:37:16;;;;;;;8.57;7.73;;;13.40;1.00;;;;;;4857856;28;20736;-83
2021/03/26 08:39:44;;;;;;;7.47;6.90;;;14.10;99.90;;;;;;4857122;28;20198;-82
2021/03/26 08:42:17;;;;;;;6.33;5.80;;;14.90;99.90;;;;;;4874808;28;20185;-82
2021/03/26 08:44:41;;;;;;;5.30;4.90;;;15.60;99.90;;;;;;4858244;28;20240;-83
2021/03/26 08:47:10;;;;;;;4.47;4.10;;;16.20;99.90;;;;;;4875229;28;20265;-82
2021/03/26 08:49:50;;;;;;;3.63;3.33;;;16.50;99.90;;;;;;4872875;28;20280;-79
2021/03/26 08:52:30;;;;;;;3.50;3.30;;;16.70;99.90;;;;;;4858387;28;20201;-80
2021/03/26 08:55:06;;;;;;;3.40;3.17;;;16.80;99.90;;;;;;4858451;28;20203;-77
2021/03/26 08:57:37;;;;;;;2.80;2.60;;;16.80;99.90;;;;;;4839346;28;20194;-78
2021/03/26 09:00:08;;;;;;;2.70;2.53;;;16.60;99.90;;;;;;4853253;28;20288;-73
2021/03/26 09:02:58;;;;;;;2.23;2.10;;;16.80;99.90;;;;;;4842836;28;20705;-73
2021/03/26 09:06:07;;;;;;;2.33;2.10;;;16.90;99.90;;;;;;4865539;28;20592;-74
2021/03/26 09:08:58;;;;;;;2.30;2.20;;;17.00;99.90;;;;;;4823487;28;20202;-77
2021/03/26 09:11:40;;;;;;;2.30;2.17;;;17.10;99.90;;;;;;4853999;28;20222;-74
2021/03/26 09:14:28;;;;;;;2.63;2.10;;;17.20;99.90;;;;;;4871602;28;20199;-73
2021/03/26 09:16:56;;;;;;;1.70;1.60;;;17.40;99.90;;;;;;4856973;28;20194;-77
2021/03/26 09:19:22;;;;;;;1.23;1.23;;;17.60;99.90;;;;;;4863088;28;20196;-73
2021/03/26 09:21:49;;;;;;;1.03;1.03;;;18.00;99.90;;;;;;4856410;28;20243;-73
2021/03/26 09:24:26;;;;;;;0.93;0.93;;;18.50;99.90;;;;;;4874489;28;20196;-76
2021/03/26 09:27:02;;;;;;;0.93;0.93;;;19.30;99.90;;;;;;4874696;28;20647;-72
2021/03/26 09:29:33;;;;;;;0.60;0.60;;;20.50;99.90;;;;;;4875092;28;20522;-75
2021/03/26 09:32:01;;;;;;;0.40;0.40;;;22.00;99.90;;;;;;4856593;28;20665;-75
2021/03/26 09:34:28;;;;;;;0.40;0.40;;;23.40;99.90;;;;;;4873299;28;20226;-73
2021/03/26 09:37:08;;;;;;;0.30;0.30;;;24.60;99.90;;;;;;4872062;28;20773;-75
2021/03/26 09:39:36;;;;;;;0.30;0.30;;;26.60;99.90;;;;;;4873600;28;20191;-79
2021/03/26 09:42:09;;;;;;;0.40;0.40;;;28.60;99.90;;;;;;4873185;28;20785;-73
2021/03/26 09:44:36;;;;;;;0.30;0.30;;;29.40;99.90;;;;;;4874504;28;20639;-73
2021/03/26 09:47:02;;;;;;;0.30;0.30;;;30.50;99.90;;;;;;4872726;28;20246;-77
2021/03/26 09:49:31;;;;;;;0.20;0.20;;;31.30;99.90;;;;;;4873570;28;20205;-75
2021/03/26 09:51:58;;;;;;;0.20;0.20;;;31.80;99.90;;;;;;4858905;28;20224;-76
2021/03/26 09:54:34;;;;;;;0.20;0.20;;;32.90;99.90;;;;;;4877954;28;20190;-78
2021/03/26 09:57:23;;;;;;;0.20;0.20;;;33.90;99.90;;;;;;4877490;28;20763;-75
2021/03/26 09:59:56;;;;;;;0.30;0.30;;;34.70;99.90;;;;;;4878325;28;20211;-75
2021/03/26 10:02:30;;;;;;;0.30;0.30;;;35.60;99.90;;;;;;4865847;28;20247;-74
2021/03/26 10:05:00;;;;;;;0.30;0.30;;;35.30;99.90;;;;;;4877586;28;20188;-78
2021/03/26 10:07:31;;;;;;;0.20;0.20;;;34.90;99.90;;;;;;4859879;28;20718;-81
2021/03/26 10:12:41;;;;;;;0.20;0.20;;;34.90;99.90;;;;;;4862650;28;20213;-75
2021/03/26 10:15:18;;;;;;;0.22;0.22;;;34.60;99.90;;;;;;4857529;28;20208;-75
2021/03/26 10:17:53;;;;;;;0.30;0.30;;;34.20;99.90;;;;;;4859429;28;20178;-74
2021/03/26 10:20:22;;;;;;;0.30;0.30;;;34.60;99.90;;;;;;4866054;28;20228;-78
2021/03/26 10:22:51;;;;;;;0.20;0.20;;;34.90;99.90;;;;;;4878345;28;20197;-74
2021/03/26 10:25:24;;;;;;;0.20;0.20;;;35.10;99.90;;;;;;4875579;28;20212;-74
2021/03/26 10:27:56;;;;;;;0.20;0.20;;;34.80;99.90;;;;;;4873470;28;20198;-76
2021/03/26 10:30:24;;;;;;;0.22;0.22;;;34.70;99.90;;;;;;4876135;28;20627;-81
2021/03/26 10:32:49;;;;;;;0.20;0.20;;;34.70;99.90;;;;;;4877292;28;20185;-72
2021/03/26 10:35:19;;;;;;;0.30;0.30;;;35.30;99.90;;;;;;4859328;28;20607;-75
2021/03/26 10:37:44;;;;;;;0.25;0.25;;;34.90;99.90;;;;;;4878017;28;20186;-75
2021/03/26 10:40:12;;;;;;;0.20;0.20;;;35.20;99.90;;;;;;4859549;28;20221;-76
2021/03/26 10:42:47;;;;;;;0.30;0.30;;;36.00;99.90;;;;;;4858744;28;20300;-73
2021/03/26 10:45:23;;;;;;;0.20;0.20;;;35.30;99.90;;;;;;4877467;28;20249;-75
2021/03/26 10:47:50;;;;;;;0.20;0.20;;;35.70;99.90;;;;;;4877506;28;20208;-74
2021/03/26 10:50:28;;;;;;;0.20;0.20;;;35.90;99.90;;;;;;4877245;28;20193;-73
2021/03/26 10:52:56;;;;;;;0.30;0.30;;;36.20;99.90;;;;;;4858218;28;20216;-75
2021/03/26 10:55:21;;;;;;;0.20;0.20;;;36.20;99.90;;;;;;4875926;28;20651;-76
2021/03/26 10:57:54;;;;;;;0.22;0.22;;;36.90;99.90;;;;;;4877752;28;20231;-77
2021/03/26 11:00:25;;;;;;;0.22;0.22;;;37.90;99.90;;;;;;4875794;28;20615;-77
2021/03/26 11:03:10;;;;;;;0.20;0.20;;;39.30;99.90;;;;;;4872489;28;20243;-77
2021/03/26 11:05:40;;;;;;;0.20;0.20;;;40.10;99.90;;;;;;4875910;28;20189;-82
2021/03/26 11:08:33;;;;;;;0.20;0.20;;;40.70;99.90;;;;;;4875559;28;20185;-77
2021/03/26 11:11:03;;;;;;;0.22;0.22;;;41.40;99.90;;;;;;4857537;28;20268;-76
2021/03/26 11:13:33;;;;;;;0.28;0.28;;;42.00;99.90;;;;;;4875328;28;20193;-81
2021/03/26 11:16:01;;;;;;;0.20;0.20;;;42.00;99.90;;;;;;4857492;28;20189;-75
2021/03/26 11:18:31;;;;;;;0.20;0.20;;;41.40;99.90;;;;;;4875395;28;20201;-84
2021/03/26 11:20:59;;;;;;;0.20;0.20;;;41.50;99.90;;;;;;4877367;28;20209;-78
2021/03/26 11:23:26;;;;;;;0.20;0.20;;;41.80;99.90;;;;;;4873121;28;20201;-80
2021/03/26 11:25:51;;;;;;;0.20;0.20;;;41.80;99.90;;;;;;4855133;28;20681;-78
2021/03/26 11:28:27;;;;;;;0.20;0.20;;;42.50;99.90;;;;;;4874250;28;20644;-74
2021/03/26 11:31:21;;;;;;;0.20;0.20;;;42.70;99.90;;;;;;4869016;28;20643;-78
2021/03/26 11:34:00;;;;;;;0.20;0.20;;;42.40;99.90;;;;;;4873306;28;20205;-78
2021/03/26 11:36:54;;;;;;;0.28;0.28;;;43.00;99.90;;;;;;4875816;28;20181;-77
2021/03/26 11:39:23;;;;;;;0.30;0.30;;;43.80;99.90;;;;;;4845394;28;20186;-75
2021/03/26 11:41:52;;;;;;;0.30;0.30;;;44.50;99.90;;;;;;4876303;28;20197;-78
2021/03/26 11:44:18;;;;;;;0.20;0.20;;;44.20;99.90;;;;;;4874169;28;20216;-78
2021/03/26 11:46:45;;;;;;;0.20;0.20;;;43.90;99.90;;;;;;4874985;28;20272;-78
2021/03/26 11:49:17;;;;;;;0.20;0.20;;;44.20;99.90;;;;;;4874823;28;20239;-73
2021/03/26 11:51:45;;;;;;;0.20;0.20;;;44.00;99.90;;;;;;4874732;28;20578;-77
2021/03/26 11:54:14;;;;;;;0.20;0.20;;;43.80;99.90;;;;;;4873709;28;20200;-80
2021/03/26 11:56:51;;;;;;;0.20;0.20;;;43.00;99.90;;;;;;4871187;28;20296;-78
2021/03/26 11:59:47;;;;;;;0.20;0.20;;;42.70;99.90;;;;;;4855433;28;20263;-77
2021/03/26 12:02:45;;;;;;;0.20;0.20;;;43.10;99.90;;;;;;4863776;28;20229;-75
2021/03/26 12:05:17;;;;;;;0.20;0.20;;;44.00;99.90;;;;;;4867156;28;20655;-77
2021/03/26 12:07:46;;;;;;;0.20;0.20;;;43.90;99.90;;;;;;4857442;28;20255;-81
2021/03/26 12:10:23;;;;;;;0.20;0.20;;;43.10;99.90;;;;;;4874819;28;20217;-79
2021/03/26 12:12:57;;;;;;;0.30;0.30;;;43.40;99.90;;;;;;4868697;28;20177;-80
2021/03/26 12:15:31;;;;;;;0.20;0.20;;;44.10;99.90;;;;;;4874021;28;20598;-80
2021/03/26 12:18:04;;;;;;;0.20;0.20;;;44.20;99.90;;;;;;4874328;28;20286;-84
2021/03/26 12:20:31;;;;;;;0.20;0.20;;;44.00;99.90;;;;;;4859187;28;20263;-82
2021/03/26 12:23:31;;;;;;;0.30;0.30;;;44.40;99.90;;;;;;4875415;28;20193;-80
2021/03/26 12:26:04;;;;;;;0.20;0.20;;;45.10;99.90;;;;;;4865265;28;20189;-79
2021/03/26 12:28:47;;;;;;;0.30;0.30;;;45.60;99.90;;;;;;4874053;28;20235;-82
2021/03/26 12:31:21;;;;;;;0.20;0.20;;;46.20;99.90;;;;;;4863320;28;20201;-84
2021/03/26 12:33:51;;;;;;;0.30;0.30;;;46.00;99.90;;;;;;4873388;28;20211;-75
2021/03/26 12:36:35;;;;;;;0.20;0.20;;;44.90;99.90;;;;;;4876985;28;20299;-78
2021/03/26 12:39:13;;;;;;;0.20;0.20;;;44.80;99.90;;;;;;4876861;28;20177;-80
2021/03/26 12:41:50;;;;;;;0.20;0.20;;;44.80;99.90;;;;;;4859795;28;20223;-80
2021/03/26 12:44:28;;;;;;;0.20;0.20;;;45.40;99.90;;;;;;4880448;28;20202;-79
2021/03/26 12:47:09;;;;;;;0.20;0.20;;;46.10;99.90;;;;;;4873971;28;20814;-83
2021/03/26 12:49:41;;;;;;;0.20;0.20;;;46.30;99.90;;;;;;4876889;28;20212;-77
2021/03/26 12:52:24;;;;;;;0.20;0.20;;;44.80;99.90;;;;;;4873116;28;20679;-80
2021/03/26 12:55:06;;;;;;;0.20;0.20;;;44.10;99.90;;;;;;4869747;28;20184;-79
2021/03/26 12:57:35;;;;;;;0.20;0.20;;;43.60;99.90;;;;;;4859839;28;20216;-87
2021/03/26 13:00:27;;;;;;;0.28;0.28;;;43.10;99.90;;;;;;4867241;28;20204;-86
2021/03/26 13:03:08;;;;;;;0.20;0.20;;;42.40;99.90;;;;;;4858575;28;20223;-81
2021/03/26 13:05:31;;;;;;;0.20;0.20;;;41.70;99.90;;;;;;4870771;28;20193;-75
2021/03/26 13:08:05;;;;;;;0.28;0.28;;;41.50;99.90;;;;;;4840242;28;20254;-79
2021/03/26 13:10:48;;;;;;;0.20;0.20;;;41.80;99.90;;;;;;4872197;28;20228;-77
2021/03/26 13:13:20;;;;;;;0.20;0.20;;;42.40;99.90;;;;;;4853164;28;20259;-81
2021/03/26 13:16:06;;;;;;;0.20;0.20;;;42.50;99.90;;;;;;4857065;28;20202;-86
2021/03/26 13:18:29;;;;;;;0.20;0.20;;;41.90;99.90;;;;;;4873303;28;20729;-83
2021/03/26 13:20:57;;;;;;;0.20;0.20;;;41.60;99.90;;;;;;4856111;28;20279;-80
2021/03/26 13:23:23;;;;;;;0.20;0.20;;;40.50;99.90;;;;;;4872942;28;20197;-84